createdAt,value
2023-04-03T00:00:58.339Z,5.20
2023-04-03T00:06:02.900Z,1.90
2023-04-03T00:11:08.952Z,5.75
2023-04-03T00:16:13.763Z,5.32
2023-04-03T00:21:17.884Z,9.50
2023-04-03T00:26:23.232Z,11.80
2023-04-03T00:31:27.722Z,7.15
2023-04-03T00:36:32.348Z,4.45
2023-04-03T00:41:37.801Z,3.65
2023-04-03T00:46:41.992Z,2.80
2023-04-03T00:51:46.479Z,3.13
2023-04-03T00:56:54.495Z,9.30
2023-04-03T01:02:00.903Z,4.47
2023-04-03T01:07:10.572Z,2.30
2023-04-03T01:12:21.566Z,13.00
2023-04-03T01:17:33.093Z,6.45
2023-04-03T01:22:47.318Z,3.45
2023-04-03T01:27:53.371Z,3.33
2023-04-03T01:43:33.803Z,7.75
2023-04-03T01:48:39.582Z,10.00
2023-04-03T01:53:44.794Z,6.13
2023-04-03T01:58:49.721Z,9.95
2023-04-03T02:03:57.911Z,10.88
2023-04-03T02:09:01.972Z,6.78
2023-04-03T02:14:08.157Z,4.63
2023-04-03T02:19:13.527Z,6.72
2023-04-03T02:24:18.139Z,5.68
2023-04-03T02:29:22.482Z,4.85
2023-04-03T02:34:28.139Z,4.28
2023-04-03T02:39:33.864Z,8.93
2023-04-03T02:44:40.826Z,9.18
2023-04-03T02:49:48.725Z,10.05
2023-04-03T02:54:53.089Z,6.07
2023-04-03T02:59:58.167Z,6.32
2023-04-03T03:05:05.237Z,6.13
2023-04-03T03:10:10.082Z,4.88
2023-04-03T03:15:14.408Z,24.25
2023-04-03T03:20:22.007Z,13.63
2023-04-03T03:25:27.921Z,9.93
2023-04-03T03:30:32.254Z,8.25
2023-04-03T03:35:38.209Z,6.93
2023-04-03T03:40:42.781Z,15.43
2023-04-03T03:45:47.594Z,15.38
2023-04-03T03:50:54.189Z,13.48
2023-04-03T03:56:07.381Z,10.18
2023-04-03T04:01:13.559Z,22.45
2023-04-03T04:06:24.116Z,32.50
2023-04-03T04:11:34.506Z,23.95
2023-04-03T04:16:39.755Z,14.10
2023-04-03T04:21:51.633Z,7.25
2023-04-03T04:26:56.845Z,7.88
2023-04-03T04:32:02.120Z,13.02
2023-04-03T04:37:08.933Z,22.88
2023-04-03T04:42:15.087Z,17.35
2023-04-03T04:52:28.540Z,11.02
2023-04-03T04:57:33.448Z,8.05
2023-04-03T05:02:38.305Z,9.23
2023-04-03T05:07:44.176Z,27.58
2023-04-03T05:12:48.407Z,52.05
2023-04-03T05:17:55.842Z,55.97
2023-04-03T05:23:02.554Z,31.02
2023-04-03T05:28:07.075Z,15.63
2023-04-03T05:33:12.323Z,6.75
2023-04-03T05:38:28.180Z,11.10
2023-04-03T05:43:35.642Z,33.33
2023-04-03T05:48:40.738Z,37.55
2023-04-03T05:53:50.468Z,35.53
2023-04-03T05:58:54.752Z,37.42
2023-04-03T06:04:00.278Z,99.57
2023-04-03T06:09:06.917Z,78.93
2023-04-03T06:14:12.342Z,72.47
2023-04-03T06:19:17.601Z,39.65
2023-04-03T06:24:27.443Z,42.72
2023-04-03T06:29:31.816Z,36.10
2023-04-03T06:34:36.704Z,86.53
2023-04-03T06:39:43.061Z,33.75
2023-04-03T06:44:47.537Z,25.30
2023-04-03T06:49:52.588Z,31.70
2023-04-03T06:55:00.484Z,33.40
2023-04-03T07:00:06.550Z,43.47
2023-04-03T07:05:12.692Z,65.45
2023-04-03T07:10:20.127Z,38.08
2023-04-03T07:15:24.260Z,30.58
2023-04-03T07:20:28.348Z,53.05
2023-04-03T07:25:34.835Z,84.78
2023-04-03T07:30:46.267Z,125.90
2023-04-03T07:35:51.259Z,86.15
2023-04-03T07:40:57.595Z,70.20
2023-04-03T07:46:01.812Z,60.33
2023-04-03T07:51:07.212Z,49.50
2023-04-03T07:56:13.137Z,43.95
2023-04-03T08:01:18.555Z,44.15
2023-04-03T08:06:41.922Z,35.33
2023-04-03T08:11:54.324Z,29.35
2023-04-03T08:16:59.461Z,23.30
2023-04-03T08:22:04.513Z,19.48
2023-04-03T08:27:10.132Z,40.25
2023-04-03T08:32:14.609Z,39.75
2023-04-03T08:37:19.196Z,26.67
2023-04-03T08:42:39.207Z,39.65
2023-04-03T08:47:49.609Z,83.03
2023-04-03T08:52:58.042Z,36.60
2023-04-03T08:58:06.305Z,32.10
2023-04-03T09:03:15.453Z,21.10
2023-04-03T09:13:39.967Z,6.80
2023-04-03T09:18:50.807Z,6.60
2023-04-03T09:23:58.396Z,10.90
2023-04-03T09:29:11.081Z,3.00
2023-04-03T09:34:22.872Z,3.03
2023-04-03T09:39:29.667Z,3.20
2023-04-03T09:44:38.722Z,5.35
2023-04-03T09:49:42.915Z,3.67
2023-04-03T09:54:47.196Z,3.20
2023-04-03T10:00:02.458Z,5.05
2023-04-03T10:05:29.990Z,9.52
2023-04-03T10:10:34.450Z,5.43
2023-04-03T10:15:46.175Z,7.35
2023-04-03T10:20:53.600Z,8.63
2023-04-03T10:26:09.131Z,7.78
2023-04-03T10:31:23.806Z,4.35
2023-04-03T10:36:39.980Z,6.00
2023-04-03T10:42:09.376Z,9.35
2023-04-03T10:47:29.534Z,7.60
2023-04-03T10:52:43.819Z,3.65
2023-04-03T10:57:50.375Z,4.57
2023-04-03T11:03:01.214Z,3.05
2023-04-03T11:08:13.139Z,8.10
2023-04-03T11:13:20.683Z,5.88
2023-04-03T11:18:34.165Z,4.80
2023-04-03T11:23:49.056Z,8.13
2023-04-03T11:28:57.665Z,7.57
2023-04-03T11:34:13.689Z,11.27
2023-04-03T11:39:26.630Z,8.52
2023-04-03T11:44:38.849Z,17.05
2023-04-03T11:50:03.627Z,8.90
2023-04-03T11:55:49.954Z,3.67
2023-04-03T12:01:13.201Z,5.65
2023-04-03T12:06:59.610Z,5.00
2023-04-03T12:12:51.307Z,5.07
2023-04-03T12:17:56.148Z,26.83
2023-04-03T12:23:25.371Z,9.68
2023-04-03T12:28:32.460Z,4.50
2023-04-03T12:33:50.997Z,13.48
2023-04-03T12:39:17.115Z,3.53
2023-04-03T12:44:35.385Z,2.70
2023-04-03T12:49:42.710Z,7.30
2023-04-03T12:54:50.496Z,2.90
2023-04-03T12:59:59.770Z,8.65
2023-04-03T13:05:11.813Z,8.43
2023-04-03T13:10:23.702Z,8.30
2023-04-03T13:15:33.442Z,6.38
2023-04-03T13:20:39.998Z,5.00
2023-04-03T13:25:48.405Z,13.38
2023-04-03T13:31:05.147Z,5.80
2023-04-03T13:36:19.333Z,3.97
2023-04-03T13:41:31.466Z,4.75
2023-04-03T13:46:37.780Z,7.20
2023-04-03T13:51:42.747Z,9.10
2023-04-03T13:56:50.433Z,12.98
2023-04-03T14:02:08.387Z,8.30
2023-04-03T14:07:13.722Z,5.53
2023-04-03T14:12:30.880Z,4.07
2023-04-03T14:17:38.000Z,4.90
2023-04-03T14:22:42.577Z,4.18
2023-04-03T14:27:49.896Z,3.17
2023-04-03T14:32:55.889Z,4.95
2023-04-03T14:38:02.124Z,4.97
2023-04-03T14:43:08.949Z,4.40
2023-04-03T14:48:20.573Z,4.88
2023-04-03T14:53:37.779Z,10.10
2023-04-03T14:58:43.852Z,6.38
2023-04-03T15:03:50.048Z,11.25
2023-04-03T15:08:54.622Z,14.95
2023-04-03T15:14:02.922Z,20.25
2023-04-03T15:19:09.122Z,17.35
2023-04-03T15:24:14.754Z,12.15
2023-04-03T15:29:19.937Z,11.00
2023-04-03T15:34:25.664Z,15.18
2023-04-03T15:39:30.351Z,25.10
2023-04-03T15:44:38.675Z,8.57
2023-04-03T15:49:44.533Z,13.60
2023-04-03T15:54:49.552Z,7.63
2023-04-03T15:59:54.453Z,14.73
2023-04-03T16:05:01.730Z,21.30
2023-04-03T16:10:07.416Z,21.00
2023-04-03T16:15:12.797Z,30.83
2023-04-03T16:20:19.847Z,13.93
2023-04-03T16:25:24.852Z,15.55
2023-04-03T16:30:29.385Z,18.00
2023-04-03T16:35:36.705Z,14.60
2023-04-03T16:40:41.702Z,19.58
2023-04-03T16:45:46.739Z,13.63
2023-04-03T16:50:54.451Z,8.75
2023-04-03T16:56:00.770Z,9.43
2023-04-03T17:01:12.564Z,9.30
2023-04-03T17:06:26.103Z,9.20
2023-04-03T17:11:31.390Z,8.18
2023-04-03T17:16:37.899Z,7.32
2023-04-03T17:21:47.185Z,15.00
2023-04-03T17:26:51.252Z,9.40
2023-04-03T17:31:55.656Z,9.27
2023-04-03T17:37:02.409Z,8.68
2023-04-03T17:42:09.565Z,11.73
2023-04-03T17:47:14.029Z,8.52
2023-04-03T17:52:20.575Z,10.40
2023-04-03T17:57:27.843Z,15.05
2023-04-03T18:02:32.451Z,59.90
2023-04-03T18:07:38.767Z,75.30
2023-04-03T18:12:43.757Z,19.27
2023-04-03T18:17:50.531Z,50.10
2023-04-03T18:22:56.686Z,24.75
2023-04-03T18:28:06.401Z,22.88
2023-04-03T18:33:11.188Z,43.92
2023-04-03T18:38:16.832Z,9.90
2023-04-03T18:43:21.217Z,19.25
2023-04-03T18:48:27.374Z,33.03
2023-04-03T18:53:33.802Z,37.30
2023-04-03T18:58:38.051Z,10.05
2023-04-03T19:03:42.880Z,44.78
2023-04-03T19:08:49.808Z,25.33
2023-04-03T19:14:10.524Z,22.27
2023-04-03T19:19:18.045Z,76.68
2023-04-03T19:24:23.778Z,10.57
2023-04-03T19:29:28.084Z,59.60
2023-04-03T19:34:32.701Z,8.88
2023-04-03T19:39:39.999Z,9.00
2023-04-03T19:44:45.202Z,2.53
2023-04-03T19:49:49.901Z,5.60
2023-04-03T19:54:55.396Z,3.53
2023-04-03T19:59:59.547Z,4.35
2023-04-03T20:05:04.038Z,3.90
2023-04-03T20:10:12.094Z,4.60
2023-04-03T20:15:16.855Z,4.93
2023-04-03T20:20:20.989Z,3.28
2023-04-03T20:25:47.950Z,2.15
2023-04-03T20:30:55.234Z,1.95
2023-04-03T20:36:00.104Z,1.50
2023-04-03T20:41:06.288Z,1.48
2023-04-03T20:46:10.987Z,1.88
2023-04-03T20:51:18.398Z,1.20
2023-04-03T20:56:24.435Z,1.50
2023-04-03T21:01:29.278Z,1.45
2023-04-03T21:07:13.480Z,1.40
2023-04-03T21:12:56.581Z,2.30
2023-04-03T21:18:27.849Z,3.55
2023-04-03T21:23:33.260Z,1.00
2023-04-03T21:28:37.391Z,1.50
2023-04-03T21:33:43.424Z,11.60
2023-04-03T21:38:48.264Z,1.27
2023-04-03T21:43:54.058Z,1.40
2023-04-03T21:48:59.861Z,0.98
2023-04-03T21:54:04.220Z,2.40
2023-04-03T21:59:08.364Z,1.10
2023-04-03T22:04:16.513Z,1.10
2023-04-03T22:09:21.607Z,1.10
2023-04-03T22:14:28.801Z,1.50
2023-04-03T22:19:34.841Z,0.50
2023-04-03T22:24:39.260Z,0.70
2023-04-03T22:29:47.233Z,0.60
2023-04-03T22:34:52.754Z,2.53
2023-04-03T22:39:56.909Z,0.57
2023-04-03T22:45:01.670Z,0.60
2023-04-03T22:50:08.070Z,0.90
2023-04-03T23:00:22.717Z,0.57
2023-04-03T23:05:28.698Z,0.40
2023-04-03T23:10:33.164Z,0.55
2023-04-03T23:15:37.393Z,0.40
2023-04-03T23:20:43.574Z,1.65
2023-04-03T23:25:52.385Z,0.40
2023-04-03T23:30:59.530Z,0.50
2023-04-03T23:36:09.837Z,0.68
2023-04-03T23:41:14.312Z,0.70
2023-04-03T23:46:20.310Z,0.73
2023-04-03T23:51:25.925Z,0.65
2023-04-03T23:56:31.594Z,1.25
